sensor_id;sensor_type;location;lat;lon;timestamp;temperature;humidity
42261;DHT22;27926;48.062;7.474;2022-08-21T05:12:30;13.90;99.90
42261;DHT22;27926;48.062;7.474;2022-08-21T06:01:12;17.50;99.90
42261;DHT22;27926;48.062;7.474;2022-08-21T06:04:37;18.80;99.90
42261;DHT22;27926;48.062;7.474;2022-08-21T06:07:01;20.20;99.90
42261;DHT22;27926;48.062;7.474;2022-08-21T06:09:26;21.10;99.90
42261;DHT22;27926;48.062;7.474;2022-08-21T06:11:51;22.00;99.90
42261;DHT22;27926;48.062;7.474;2022-08-21T06:14:16;22.70;99.90
42261;DHT22;27926;48.062;7.474;2022-08-21T06:16:40;23.20;99.90
42261;DHT22;27926;48.062;7.474;2022-08-21T06:19:05;23.60;99.90
42261;DHT22;27926;48.062;7.474;2022-08-21T06:21:30;24.00;99.90
42261;DHT22;27926;48.062;7.474;2022-08-21T06:23:54;24.20;99.90
42261;DHT22;27926;48.062;7.474;2022-08-21T06:26:19;24.50;99.60
42261;DHT22;27926;48.062;7.474;2022-08-21T06:28:45;24.40;99.70
42261;DHT22;27926;48.062;7.474;2022-08-21T06:31:21;24.60;99.10
42261;DHT22;27926;48.062;7.474;2022-08-21T06:33:47;24.70;98.70
42261;DHT22;27926;48.062;7.474;2022-08-21T06:36:11;24.80;98.10
42261;DHT22;27926;48.062;7.474;2022-08-21T06:38:37;24.60;98.30
42261;DHT22;27926;48.062;7.474;2022-08-21T06:41:02;24.50;98.20
42261;DHT22;27926;48.062;7.474;2022-08-21T06:43:27;24.50;98.70
42261;DHT22;27926;48.062;7.474;2022-08-21T06:45:52;24.50;98.60
42261;DHT22;27926;48.062;7.474;2022-08-21T06:48:16;24.40;98.40
42261;DHT22;27926;48.062;7.474;2022-08-21T06:50:41;24.00;98.90
42261;DHT22;27926;48.062;7.474;2022-08-21T06:53:11;23.80;98.40
42261;DHT22;27926;48.062;7.474;2022-08-21T06:55:37;23.90;99.10
42261;DHT22;27926;48.062;7.474;2022-08-21T06:58:03;23.90;99.20
42261;DHT22;27926;48.062;7.474;2022-08-21T07:00:28;23.80;99.30
42261;DHT22;27926;48.062;7.474;2022-08-21T07:02:53;23.80;99.70
42261;DHT22;27926;48.062;7.474;2022-08-21T07:05:18;23.70;99.90
42261;DHT22;27926;48.062;7.474;2022-08-21T07:07:43;23.60;99.50
42261;DHT22;27926;48.062;7.474;2022-08-21T07:10:08;23.50;99.90
42261;DHT22;27926;48.062;7.474;2022-08-21T07:12:32;23.20;99.90
42261;DHT22;27926;48.062;7.474;2022-08-21T07:14:57;23.10;99.90
42261;DHT22;27926;48.062;7.474;2022-08-21T07:17:22;23.20;99.90
42261;DHT22;27926;48.062;7.474;2022-08-21T07:19:47;23.30;99.90
42261;DHT22;27926;48.062;7.474;2022-08-21T07:22:19;23.50;99.90
42261;DHT22;27926;48.062;7.474;2022-08-21T07:24:44;23.30;99.90
42261;DHT22;27926;48.062;7.474;2022-08-21T07:27:09;23.50;99.90
42261;DHT22;27926;48.062;7.474;2022-08-21T07:29:33;23.60;99.90
42261;DHT22;27926;48.062;7.474;2022-08-21T07:31:58;23.70;99.90
42261;DHT22;27926;48.062;7.474;2022-08-21T07:34:23;23.90;99.90
42261;DHT22;27926;48.062;7.474;2022-08-21T07:36:47;24.00;99.90
42261;DHT22;27926;48.062;7.474;2022-08-21T07:39:12;23.90;99.90
42261;DHT22;27926;48.062;7.474;2022-08-21T07:41:37;23.90;99.90
42261;DHT22;27926;48.062;7.474;2022-08-21T07:44:02;24.00;99.90
42261;DHT22;27926;48.062;7.474;2022-08-21T07:46:27;24.10;99.80
42261;DHT22;27926;48.062;7.474;2022-08-21T07:48:52;24.20;99.40
42261;DHT22;27926;48.062;7.474;2022-08-21T07:51:18;24.80;99.10
42261;DHT22;27926;48.062;7.474;2022-08-21T07:53:49;25.20;97.60
42261;DHT22;27926;48.062;7.474;2022-08-21T07:56:14;25.10;98.10
42261;DHT22;27926;48.062;7.474;2022-08-21T07:58:38;24.70;98.30
42261;DHT22;27926;48.062;7.474;2022-08-21T08:01:07;24.30;98.30
42261;DHT22;27926;48.062;7.474;2022-08-21T08:03:32;24.10;99.10
42261;DHT22;27926;48.062;7.474;2022-08-21T08:05:57;23.80;99.10
42261;DHT22;27926;48.062;7.474;2022-08-21T08:08:22;23.80;99.70
42261;DHT22;27926;48.062;7.474;2022-08-21T08:10:46;23.90;99.60
42261;DHT22;27926;48.062;7.474;2022-08-21T08:13:11;24.10;99.80
42261;DHT22;27926;48.062;7.474;2022-08-21T08:15:36;24.10;99.60
42261;DHT22;27926;48.062;7.474;2022-08-21T08:18:01;24.20;99.30
42261;DHT22;27926;48.062;7.474;2022-08-21T08:20:26;24.00;99.20
42261;DHT22;27926;48.062;7.474;2022-08-21T08:22:51;23.90;99.70
42261;DHT22;27926;48.062;7.474;2022-08-21T08:25:18;23.90;99.30
42261;DHT22;27926;48.062;7.474;2022-08-21T08:27:44;23.90;99.90
42261;DHT22;27926;48.062;7.474;2022-08-21T08:30:12;23.80;99.90
42261;DHT22;27926;48.062;7.474;2022-08-21T08:32:37;23.70;99.90
42261;DHT22;27926;48.062;7.474;2022-08-21T08:35:02;23.80;99.90
42261;DHT22;27926;48.062;7.474;2022-08-21T08:37:27;23.90;99.90
42261;DHT22;27926;48.062;7.474;2022-08-21T08:39:52;24.10;99.90
42261;DHT22;27926;48.062;7.474;2022-08-21T08:42:34;24.20;98.50
42261;DHT22;27926;48.062;7.474;2022-08-21T08:45:13;24.20;98.90
42261;DHT22;27926;48.062;7.474;2022-08-21T08:47:43;24.10;98.60
42261;DHT22;27926;48.062;7.474;2022-08-21T08:50:18;24.10;97.60
42261;DHT22;27926;48.062;7.474;2022-08-21T08:52:51;23.90;98.50
42261;DHT22;27926;48.062;7.474;2022-08-21T08:55:21;24.00;98.10
42261;DHT22;27926;48.062;7.474;2022-08-21T08:57:48;24.20;97.40
42261;DHT22;27926;48.062;7.474;2022-08-21T09:00:17;24.30;97.70
42261;DHT22;27926;48.062;7.474;2022-08-21T09:02:45;24.30;97.90
42261;DHT22;27926;48.062;7.474;2022-08-21T09:05:26;24.30;97.90
42261;DHT22;27926;48.062;7.474;2022-08-21T09:10:58;24.30;96.90
42261;DHT22;27926;48.062;7.474;2022-08-21T09:13:47;24.00;96.70
42261;DHT22;27926;48.062;7.474;2022-08-21T09:27:12;24.10;96.90
42261;DHT22;27926;48.062;7.474;2022-08-21T09:29:44;24.00;96.80
42261;DHT22;27926;48.062;7.474;2022-08-21T09:32:16;24.10;96.70
42261;DHT22;27926;48.062;7.474;2022-08-21T09:34:42;24.10;96.40
42261;DHT22;27926;48.062;7.474;2022-08-21T09:37:17;24.10;96.80
42261;DHT22;27926;48.062;7.474;2022-08-21T09:39:42;23.70;97.60
42261;DHT22;27926;48.062;7.474;2022-08-21T09:42:11;24.60;96.20
42261;DHT22;27926;48.062;7.474;2022-08-21T09:44:38;24.70;96.60
42261;DHT22;27926;48.062;7.474;2022-08-21T09:47:06;24.70;97.10
42261;DHT22;27926;48.062;7.474;2022-08-21T09:49:36;24.80;95.30
42261;DHT22;27926;48.062;7.474;2022-08-21T09:52:03;25.00;96.10
42261;DHT22;27926;48.062;7.474;2022-08-21T09:54:34;25.10;95.00
42261;DHT22;27926;48.062;7.474;2022-08-21T09:57:14;25.10;94.70
42261;DHT22;27926;48.062;7.474;2022-08-21T10:00:27;25.10;95.00
42261;DHT22;27926;48.062;7.474;2022-08-21T10:02:54;25.30;95.10
42261;DHT22;27926;48.062;7.474;2022-08-21T10:05:25;25.10;94.80
42261;DHT22;27926;48.062;7.474;2022-08-21T10:07:51;25.00;94.80
42261;DHT22;27926;48.062;7.474;2022-08-21T10:10:22;25.10;94.90
42261;DHT22;27926;48.062;7.474;2022-08-21T10:18:29;25.20;94.60
42261;DHT22;27926;48.062;7.474;2022-08-21T10:21:05;25.40;94.00
42261;DHT22;27926;48.062;7.474;2022-08-21T10:23:46;25.50;92.60
42261;DHT22;27926;48.062;7.474;2022-08-21T10:32:03;25.60;92.20
42261;DHT22;27926;48.062;7.474;2022-08-21T10:34:57;25.40;91.30
42261;DHT22;27926;48.062;7.474;2022-08-21T10:40:25;25.50;92.30
42261;DHT22;27926;48.062;7.474;2022-08-21T10:43:04;25.60;91.50
42261;DHT22;27926;48.062;7.474;2022-08-21T10:46:12;25.60;92.00
42261;DHT22;27926;48.062;7.474;2022-08-21T10:49:05;25.70;91.50
42261;DHT22;27926;48.062;7.474;2022-08-21T10:51:40;25.70;91.20
42261;DHT22;27926;48.062;7.474;2022-08-21T10:56:38;25.70;90.80
42261;DHT22;27926;48.062;7.474;2022-08-21T10:59:25;25.80;91.40
42261;DHT22;27926;48.062;7.474;2022-08-21T11:02:17;25.80;90.50
42261;DHT22;27926;48.062;7.474;2022-08-21T11:07:36;25.70;90.90
42261;DHT22;27926;48.062;7.474;2022-08-21T11:10:13;25.70;91.40
42261;DHT22;27926;48.062;7.474;2022-08-21T11:17:50;25.90;90.70
42261;DHT22;27926;48.062;7.474;2022-08-21T11:20:38;25.80;90.60
42261;DHT22;27926;48.062;7.474;2022-08-21T11:23:14;25.90;90.70
42261;DHT22;27926;48.062;7.474;2022-08-21T11:25:45;26.00;89.20
42261;DHT22;27926;48.062;7.474;2022-08-21T11:28:26;25.80;89.80
42261;DHT22;27926;48.062;7.474;2022-08-21T11:34:03;25.70;90.90
42261;DHT22;27926;48.062;7.474;2022-08-21T11:36:38;25.90;90.60
42261;DHT22;27926;48.062;7.474;2022-08-21T11:39:11;26.10;90.20
42261;DHT22;27926;48.062;7.474;2022-08-21T11:42:02;26.30;90.40
42261;DHT22;27926;48.062;7.474;2022-08-21T11:52:48;26.40;88.80
42261;DHT22;27926;48.062;7.474;2022-08-21T11:55:43;26.40;89.30
42261;DHT22;27926;48.062;7.474;2022-08-21T11:58:15;26.20;87.80
42261;DHT22;27926;48.062;7.474;2022-08-21T12:00:56;26.00;90.10
42261;DHT22;27926;48.062;7.474;2022-08-21T12:03:33;26.20;87.70
42261;DHT22;27926;48.062;7.474;2022-08-21T12:06:02;26.30;88.70
42261;DHT22;27926;48.062;7.474;2022-08-21T12:08:34;26.40;87.20
42261;DHT22;27926;48.062;7.474;2022-08-21T12:16:35;26.10;88.20
42261;DHT22;27926;48.062;7.474;2022-08-21T12:19:09;26.30;85.90
42261;DHT22;27926;48.062;7.474;2022-08-21T12:21:54;26.20;84.30
42261;DHT22;27926;48.062;7.474;2022-08-21T12:24:41;26.20;83.00
42261;DHT22;27926;48.062;7.474;2022-08-21T12:28:02;26.20;85.70
42261;DHT22;27926;48.062;7.474;2022-08-21T12:33:26;26.30;87.30
42261;DHT22;27926;48.062;7.474;2022-08-21T12:35:51;26.40;86.70
42261;DHT22;27926;48.062;7.474;2022-08-21T12:38:34;26.50;87.40
42261;DHT22;27926;48.062;7.474;2022-08-21T12:41:12;26.50;85.30
42261;DHT22;27926;48.062;7.474;2022-08-21T12:43:50;26.40;84.50
42261;DHT22;27926;48.062;7.474;2022-08-21T12:46:17;26.40;84.30
42261;DHT22;27926;48.062;7.474;2022-08-21T12:48:57;26.50;85.70
42261;DHT22;27926;48.062;7.474;2022-08-21T12:51:37;26.60;84.60
42261;DHT22;27926;48.062;7.474;2022-08-21T12:54:07;26.60;84.60
42261;DHT22;27926;48.062;7.474;2022-08-21T12:56:33;26.60;85.60
42261;DHT22;27926;48.062;7.474;2022-08-21T12:59:07;26.70;83.10
42261;DHT22;27926;48.062;7.474;2022-08-21T13:01:38;26.60;84.20
42261;DHT22;27926;48.062;7.474;2022-08-21T13:04:10;26.60;85.60
42261;DHT22;27926;48.062;7.474;2022-08-21T13:06:42;26.80;85.00
42261;DHT22;27926;48.062;7.474;2022-08-21T13:09:11;26.80;84.20
42261;DHT22;27926;48.062;7.474;2022-08-21T13:11:37;26.80;83.80
42261;DHT22;27926;48.062;7.474;2022-08-21T13:14:03;26.90;83.90
42261;DHT22;27926;48.062;7.474;2022-08-21T13:16:29;26.90;83.40
42261;DHT22;27926;48.062;7.474;2022-08-21T13:19:01;26.80;83.10
42261;DHT22;27926;48.062;7.474;2022-08-21T13:21:32;26.80;82.70
42261;DHT22;27926;48.062;7.474;2022-08-21T13:24:33;26.80;84.90
42261;DHT22;27926;48.062;7.474;2022-08-21T13:26:58;26.70;80.60
42261;DHT22;27926;48.062;7.474;2022-08-21T13:29:29;26.90;81.90
42261;DHT22;27926;48.062;7.474;2022-08-21T13:31:57;26.80;80.20
42261;DHT22;27926;48.062;7.474;2022-08-21T13:34:25;26.70;79.50
42261;DHT22;27926;48.062;7.474;2022-08-21T13:37:05;26.70;80.40
42261;DHT22;27926;48.062;7.474;2022-08-21T13:39:31;26.80;79.60
42261;DHT22;27926;48.062;7.474;2022-08-21T13:41:59;26.90;80.00
42261;DHT22;27926;48.062;7.474;2022-08-21T13:44:45;26.90;78.20
42261;DHT22;27926;48.062;7.474;2022-08-21T13:47:11;26.90;80.00
42261;DHT22;27926;48.062;7.474;2022-08-21T13:49:39;27.00;78.60
42261;DHT22;27926;48.062;7.474;2022-08-21T13:52:12;27.10;77.40
42261;DHT22;27926;48.062;7.474;2022-08-21T13:54:40;27.10;76.50
42261;DHT22;27926;48.062;7.474;2022-08-21T13:57:23;27.10;78.00
42261;DHT22;27926;48.062;7.474;2022-08-21T13:59:48;27.20;80.10
42261;DHT22;27926;48.062;7.474;2022-08-21T14:02:19;27.30;79.00
42261;DHT22;27926;48.062;7.474;2022-08-21T14:04:54;27.30;78.50
42261;DHT22;27926;48.062;7.474;2022-08-21T14:07:25;27.20;79.20
42261;DHT22;27926;48.062;7.474;2022-08-21T14:09:50;27.30;77.30
42261;DHT22;27926;48.062;7.474;2022-08-21T14:15:28;27.10;76.60
42261;DHT22;27926;48.062;7.474;2022-08-21T14:17:53;27.00;75.10
42261;DHT22;27926;48.062;7.474;2022-08-21T14:20:35;27.00;77.30
42261;DHT22;27926;48.062;7.474;2022-08-21T14:23:00;27.10;76.90
42261;DHT22;27926;48.062;7.474;2022-08-21T14:27:55;27.20;73.80
42261;DHT22;27926;48.062;7.474;2022-08-21T14:30:30;27.20;74.60
42261;DHT22;27926;48.062;7.474;2022-08-21T14:32:56;27.30;73.60
42261;DHT22;27926;48.062;7.474;2022-08-21T14:35:21;27.40;72.20
42261;DHT22;27926;48.062;7.474;2022-08-21T14:37:46;27.40;73.40
42261;DHT22;27926;48.062;7.474;2022-08-21T14:40:11;27.40;71.50
42261;DHT22;27926;48.062;7.474;2022-08-21T14:42:37;27.40;72.20
42261;DHT22;27926;48.062;7.474;2022-08-21T14:45:15;27.40;74.40
42261;DHT22;27926;48.062;7.474;2022-08-21T14:47:44;27.30;76.30
42261;DHT22;27926;48.062;7.474;2022-08-21T14:50:10;27.20;75.50
42261;DHT22;27926;48.062;7.474;2022-08-21T14:52:35;27.00;75.80
42261;DHT22;27926;48.062;7.474;2022-08-21T14:55:01;27.00;76.90
42261;DHT22;27926;48.062;7.474;2022-08-21T14:57:26;27.00;77.40
42261;DHT22;27926;48.062;7.474;2022-08-21T14:59:55;27.10;77.90
42261;DHT22;27926;48.062;7.474;2022-08-21T15:02:20;27.20;76.00
42261;DHT22;27926;48.062;7.474;2022-08-21T15:04:45;27.20;76.20
42261;DHT22;27926;48.062;7.474;2022-08-21T15:07:09;27.20;74.60
42261;DHT22;27926;48.062;7.474;2022-08-21T15:09:34;27.10;74.40
42261;DHT22;27926;48.062;7.474;2022-08-21T15:12:00;27.20;75.10
42261;DHT22;27926;48.062;7.474;2022-08-21T15:14:29;27.20;74.90
42261;DHT22;27926;48.062;7.474;2022-08-21T15:16:54;27.20;74.40
42261;DHT22;27926;48.062;7.474;2022-08-21T15:19:22;27.10;75.40
42261;DHT22;27926;48.062;7.474;2022-08-21T15:21:47;27.10;75.50
42261;DHT22;27926;48.062;7.474;2022-08-21T15:24:11;27.10;74.50
42261;DHT22;27926;48.062;7.474;2022-08-21T15:26:36;27.10;74.60
42261;DHT22;27926;48.062;7.474;2022-08-21T15:29:02;27.10;76.00
42261;DHT22;27926;48.062;7.474;2022-08-21T15:31:27;27.20;76.10
42261;DHT22;27926;48.062;7.474;2022-08-21T15:33:53;27.30;74.00
42261;DHT22;27926;48.062;7.474;2022-08-21T15:36:19;27.30;75.80
42261;DHT22;27926;48.062;7.474;2022-08-21T15:38:44;27.30;76.50
42261;DHT22;27926;48.062;7.474;2022-08-21T15:41:09;27.30;75.40
42261;DHT22;27926;48.062;7.474;2022-08-21T15:43:42;27.20;75.40
42261;DHT22;27926;48.062;7.474;2022-08-21T15:46:10;27.20;76.70
42261;DHT22;27926;48.062;7.474;2022-08-21T15:48:36;27.20;75.50
42261;DHT22;27926;48.062;7.474;2022-08-21T15:51:01;27.10;75.30
42261;DHT22;27926;48.062;7.474;2022-08-21T15:53:25;27.00;75.20
42261;DHT22;27926;48.062;7.474;2022-08-21T15:55:50;26.90;76.60
42261;DHT22;27926;48.062;7.474;2022-08-21T15:58:16;26.80;76.20
42261;DHT22;27926;48.062;7.474;2022-08-21T16:00:41;26.60;75.90
42261;DHT22;27926;48.062;7.474;2022-08-21T16:03:08;26.70;76.80
42261;DHT22;27926;48.062;7.474;2022-08-21T16:05:36;26.60;78.30
42261;DHT22;27926;48.062;7.474;2022-08-21T16:08:01;26.70;78.60
42261;DHT22;27926;48.062;7.474;2022-08-21T16:10:25;26.60;79.70
42261;DHT22;27926;48.062;7.474;2022-08-21T16:12:54;26.60;79.90
42261;DHT22;27926;48.062;7.474;2022-08-21T16:15:20;26.70;80.50
42261;DHT22;27926;48.062;7.474;2022-08-21T16:17:47;26.80;80.70
42261;DHT22;27926;48.062;7.474;2022-08-21T16:20:14;26.80;82.20
42261;DHT22;27926;48.062;7.474;2022-08-21T16:22:39;26.90;80.50
42261;DHT22;27926;48.062;7.474;2022-08-21T16:25:05;26.90;81.60
42261;DHT22;27926;48.062;7.474;2022-08-21T16:27:30;26.80;80.20
42261;DHT22;27926;48.062;7.474;2022-08-21T16:29:55;26.80;79.80
42261;DHT22;27926;48.062;7.474;2022-08-21T16:32:20;26.70;79.60
42261;DHT22;27926;48.062;7.474;2022-08-21T16:34:47;26.70;80.40
42261;DHT22;27926;48.062;7.474;2022-08-21T16:37:21;26.60;80.40
42261;DHT22;27926;48.062;7.474;2022-08-21T16:39:46;26.40;81.40
42261;DHT22;27926;48.062;7.474;2022-08-21T16:42:16;26.30;79.80
42261;DHT22;27926;48.062;7.474;2022-08-21T16:44:41;26.10;78.80
42261;DHT22;27926;48.062;7.474;2022-08-21T16:47:06;26.10;80.20
42261;DHT22;27926;48.062;7.474;2022-08-21T16:49:31;26.00;80.30
42261;DHT22;27926;48.062;7.474;2022-08-21T16:51:56;26.00;81.40
42261;DHT22;27926;48.062;7.474;2022-08-21T16:54:20;25.90;82.30
42261;DHT22;27926;48.062;7.474;2022-08-21T16:56:45;25.80;82.90
42261;DHT22;27926;48.062;7.474;2022-08-21T16:59:11;25.80;84.30
42261;DHT22;27926;48.062;7.474;2022-08-21T17:01:35;25.70;84.40
42261;DHT22;27926;48.062;7.474;2022-08-21T17:04:00;25.60;84.10
42261;DHT22;27926;48.062;7.474;2022-08-21T17:06:25;25.50;85.10
42261;DHT22;27926;48.062;7.474;2022-08-21T17:08:50;25.50;85.10
42261;DHT22;27926;48.062;7.474;2022-08-21T17:11:42;25.50;84.70
42261;DHT22;27926;48.062;7.474;2022-08-21T17:14:14;25.40;85.10
42261;DHT22;27926;48.062;7.474;2022-08-21T17:16:43;25.40;85.10
42261;DHT22;27926;48.062;7.474;2022-08-21T17:19:08;25.40;85.50
42261;DHT22;27926;48.062;7.474;2022-08-21T17:21:33;25.40;86.30
42261;DHT22;27926;48.062;7.474;2022-08-21T17:23:58;25.30;86.90
42261;DHT22;27926;48.062;7.474;2022-08-21T17:26:23;25.20;87.80
42261;DHT22;27926;48.062;7.474;2022-08-21T17:28:48;25.10;90.10
42261;DHT22;27926;48.062;7.474;2022-08-21T17:31:13;25.10;90.90
42261;DHT22;27926;48.062;7.474;2022-08-21T17:33:47;24.90;92.10
42261;DHT22;27926;48.062;7.474;2022-08-21T17:36:15;24.70;93.70
42261;DHT22;27926;48.062;7.474;2022-08-21T17:38:41;24.60;94.80
42261;DHT22;27926;48.062;7.474;2022-08-21T17:41:05;24.50;95.00
42261;DHT22;27926;48.062;7.474;2022-08-21T17:43:31;24.30;95.70
42261;DHT22;27926;48.062;7.474;2022-08-21T17:45:56;24.30;95.70
42261;DHT22;27926;48.062;7.474;2022-08-21T17:48:21;24.10;96.70
42261;DHT22;27926;48.062;7.474;2022-08-21T17:50:45;24.00;97.30
42261;DHT22;27926;48.062;7.474;2022-08-21T17:53:10;23.80;97.70
42261;DHT22;27926;48.062;7.474;2022-08-21T17:55:38;23.70;98.40
42261;DHT22;27926;48.062;7.474;2022-08-21T17:58:04;22.30;98.40
42261;DHT22;27926;48.062;7.474;2022-08-21T18:00:30;23.40;99.70
42261;DHT22;27926;48.062;7.474;2022-08-21T18:03:08;23.20;99.90
42261;DHT22;27926;48.062;7.474;2022-08-21T18:05:41;22.90;99.90
42261;DHT22;27926;48.062;7.474;2022-08-21T18:08:06;22.00;99.90
42261;DHT22;27926;48.062;7.474;2022-08-21T18:10:31;22.70;99.90
42261;DHT22;27926;48.062;7.474;2022-08-21T18:12:56;22.60;99.90
42261;DHT22;27926;48.062;7.474;2022-08-21T18:15:22;22.60;99.90
42261;DHT22;27926;48.062;7.474;2022-08-21T18:17:49;22.50;99.90
42261;DHT22;27926;48.062;7.474;2022-08-21T18:20:16;22.40;99.90
42261;DHT22;27926;48.062;7.474;2022-08-21T18:22:42;22.20;99.90
42261;DHT22;27926;48.062;7.474;2022-08-21T18:25:07;22.00;99.90
42261;DHT22;27926;48.062;7.474;2022-08-21T18:27:32;21.90;99.90
42261;DHT22;27926;48.062;7.474;2022-08-21T18:29:58;21.80;99.90
42261;DHT22;27926;48.062;7.474;2022-08-21T18:32:25;21.70;99.90
42261;DHT22;27926;48.062;7.474;2022-08-21T18:34:51;21.60;99.90
42261;DHT22;27926;48.062;7.474;2022-08-21T18:37:16;21.40;99.90
42261;DHT22;27926;48.062;7.474;2022-08-21T18:39:40;21.30;99.90
42261;DHT22;27926;48.062;7.474;2022-08-21T18:42:10;21.30;99.90
42261;DHT22;27926;48.062;7.474;2022-08-21T18:44:37;21.20;99.90
42261;DHT22;27926;48.062;7.474;2022-08-21T18:47:05;21.10;99.90
42261;DHT22;27926;48.062;7.474;2022-08-21T18:49:31;20.90;99.90
42261;DHT22;27926;48.062;7.474;2022-08-21T18:51:56;20.80;99.90
42261;DHT22;27926;48.062;7.474;2022-08-21T18:54:20;20.70;99.90
42261;DHT22;27926;48.062;7.474;2022-08-21T18:56:45;20.60;99.90
42261;DHT22;27926;48.062;7.474;2022-08-21T18:59:11;20.50;99.90
42261;DHT22;27926;48.062;7.474;2022-08-21T19:01:36;20.40;99.90
42261;DHT22;27926;48.062;7.474;2022-08-21T19:04:02;20.20;99.90
42261;DHT22;27926;48.062;7.474;2022-08-21T19:06:26;20.10;99.90
42261;DHT22;27926;48.062;7.474;2022-08-21T19:08:51;20.10;99.90
42261;DHT22;27926;48.062;7.474;2022-08-21T19:11:16;20.00;99.90
42261;DHT22;27926;48.062;7.474;2022-08-21T19:13:41;19.90;99.90
42261;DHT22;27926;48.062;7.474;2022-08-21T19:16:07;19.80;99.90
42261;DHT22;27926;48.062;7.474;2022-08-21T19:18:39;19.80;99.90
42261;DHT22;27926;48.062;7.474;2022-08-21T19:21:04;19.70;99.90
42261;DHT22;27926;48.062;7.474;2022-08-21T19:23:29;19.60;99.90
42261;DHT22;27926;48.062;7.474;2022-08-21T19:25:56;19.60;99.90
42261;DHT22;27926;48.062;7.474;2022-08-21T19:31:25;19.60;99.90
42261;DHT22;27926;48.062;7.474;2022-08-21T19:34:03;19.60;99.90
42261;DHT22;27926;48.062;7.474;2022-08-21T19:36:29;19.60;99.90
42261;DHT22;27926;48.062;7.474;2022-08-21T19:38:54;19.60;99.90
42261;DHT22;27926;48.062;7.474;2022-08-21T19:41:20;19.60;99.90
42261;DHT22;27926;48.062;7.474;2022-08-21T19:43:49;19.60;99.90
42261;DHT22;27926;48.062;7.474;2022-08-21T19:46:23;19.60;99.90
42261;DHT22;27926;48.062;7.474;2022-08-21T19:48:49;19.60;99.90
42261;DHT22;27926;48.062;7.474;2022-08-21T19:51:14;19.50;99.90
42261;DHT22;27926;48.062;7.474;2022-08-21T19:53:39;19.50;99.90
42261;DHT22;27926;48.062;7.474;2022-08-21T19:56:04;19.40;99.90
42261;DHT22;27926;48.062;7.474;2022-08-21T20:03:55;19.30;99.90
42261;DHT22;27926;48.062;7.474;2022-08-21T20:06:39;19.30;99.90
42261;DHT22;27926;48.062;7.474;2022-08-21T20:09:05;19.30;99.90
42261;DHT22;27926;48.062;7.474;2022-08-21T20:25:14;19.30;99.90
42261;DHT22;27926;48.062;7.474;2022-08-21T20:30:22;19.30;99.90
42261;DHT22;27926;48.062;7.474;2022-08-21T20:33:05;19.30;99.90
42261;DHT22;27926;48.062;7.474;2022-08-21T20:35:30;19.40;99.90
42261;DHT22;27926;48.062;7.474;2022-08-21T20:43:37;19.60;99.90
42261;DHT22;27926;48.062;7.474;2022-08-21T20:46:04;19.50;99.90
42261;DHT22;27926;48.062;7.474;2022-08-21T20:48:36;19.50;99.90
42261;DHT22;27926;48.062;7.474;2022-08-21T21:07:28;19.60;99.90
42261;DHT22;27926;48.062;7.474;2022-08-21T21:13:04;19.50;99.90
42261;DHT22;27926;48.062;7.474;2022-08-21T21:24:09;19.20;99.90
42261;DHT22;27926;48.062;7.474;2022-08-21T21:32:14;19.00;99.90
42261;DHT22;27926;48.062;7.474;2022-08-21T21:34:41;19.00;99.90
